createdAt,value
2018-09-05T00:01:54.633Z,87.64
2018-09-05T00:04:23.122Z,87.30
2018-09-05T00:06:51.622Z,86.94
2018-09-05T00:09:20.124Z,86.69
2018-09-05T00:11:48.621Z,86.77
2018-09-05T00:14:17.144Z,86.84
2018-09-05T00:16:45.646Z,87.18
2018-09-05T00:19:14.152Z,86.65
2018-09-05T00:21:42.665Z,86.69
2018-09-05T00:24:11.129Z,87.94
2018-09-05T00:26:39.622Z,87.68
2018-09-05T00:29:08.152Z,86.91
2018-09-05T00:31:36.666Z,87.32
2018-09-05T00:34:05.154Z,86.96
2018-09-05T00:36:33.653Z,86.71
2018-09-05T00:39:02.129Z,86.25
2018-09-05T00:41:30.624Z,86.30
2018-09-05T00:43:59.093Z,85.92
2018-09-05T00:46:27.585Z,85.62
2018-09-05T00:48:56.059Z,85.44
2018-09-05T00:51:24.570Z,85.54
2018-09-05T00:53:53.097Z,85.00
2018-09-05T00:57:45.953Z,84.96
2018-09-05T01:00:14.447Z,85.43
2018-09-05T01:02:42.948Z,85.90
2018-09-05T01:05:11.446Z,85.34
2018-09-05T01:07:39.950Z,85.92
2018-09-05T01:10:08.435Z,85.82
2018-09-05T01:12:36.989Z,86.01
2018-09-05T01:15:05.534Z,85.46
2018-09-05T01:17:34.047Z,84.91
2018-09-05T01:20:02.546Z,84.64
2018-09-05T01:22:31.129Z,85.13
2018-09-05T01:24:59.613Z,85.28
2018-09-05T01:27:28.144Z,85.03
2018-09-05T01:29:56.626Z,85.35
2018-09-05T01:32:25.117Z,85.26
2018-09-05T01:34:53.574Z,84.89
2018-09-05T01:37:22.074Z,85.02
2018-09-05T01:39:50.601Z,84.93
2018-09-05T01:42:19.153Z,85.46
2018-09-05T01:44:47.622Z,85.57
2018-09-05T01:47:16.135Z,85.58
2018-09-05T01:49:44.598Z,85.06
2018-09-05T01:52:13.110Z,85.57
2018-09-05T01:54:41.573Z,85.79
2018-09-05T01:57:10.071Z,86.04
2018-09-05T01:59:38.569Z,86.16
2018-09-05T02:02:07.105Z,85.25
2018-09-05T02:04:35.570Z,84.99
2018-09-05T02:07:04.084Z,85.11
2018-09-05T02:09:32.545Z,85.58
2018-09-05T02:12:01.050Z,85.95
2018-09-05T02:14:29.518Z,86.39
2018-09-05T02:16:58.038Z,86.75
2018-09-05T02:19:26.525Z,86.12
2018-09-05T02:21:55.021Z,85.47
2018-09-05T02:24:23.492Z,86.26
2018-09-05T02:26:52.026Z,86.36
2018-09-05T02:29:20.573Z,86.67
2018-09-05T02:31:49.061Z,86.79
2018-09-05T02:34:17.554Z,86.93
2018-09-05T02:36:46.054Z,87.46
2018-09-05T02:39:14.509Z,87.60
2018-09-05T02:41:42.965Z,87.38
2018-09-05T02:44:16.807Z,87.49
2018-09-05T02:46:45.305Z,87.09
2018-09-05T02:49:13.803Z,86.92
2018-09-05T02:51:42.262Z,86.33
2018-09-05T02:54:10.775Z,86.27
2018-09-05T02:56:39.257Z,85.71
2018-09-05T02:59:07.782Z,86.41
2018-09-05T03:01:36.237Z,86.00
2018-09-05T03:04:04.746Z,86.07
2018-09-05T03:06:33.233Z,86.01
2018-09-05T03:09:01.741Z,85.29
2018-09-05T03:11:30.211Z,85.32
2018-09-05T03:13:58.706Z,85.70
2018-09-05T03:16:27.164Z,86.48
2018-09-05T03:18:55.653Z,86.35
2018-09-05T03:21:24.150Z,86.29
2018-09-05T03:23:52.646Z,86.86
2018-09-05T03:26:21.109Z,86.68
2018-09-05T03:28:49.613Z,86.91
2018-09-05T03:31:18.106Z,86.79
2018-09-05T03:33:46.637Z,86.68
2018-09-05T03:36:15.075Z,86.82
2018-09-05T03:38:43.574Z,87.06
2018-09-05T03:41:12.036Z,87.30
2018-09-05T03:43:40.542Z,87.11
2018-09-05T03:46:09.012Z,87.28
2018-09-05T03:48:37.496Z,87.05
2018-09-05T03:51:05.976Z,87.25
2018-09-05T03:53:34.466Z,87.64
2018-09-05T03:56:02.925Z,87.78
2018-09-05T03:58:31.425Z,88.45
2018-09-05T04:00:59.904Z,88.99
2018-09-05T04:03:28.462Z,90.14
2018-09-05T04:05:56.966Z,90.91
2018-09-05T04:09:49.843Z,90.86
2018-09-05T04:12:18.378Z,91.80
2018-09-05T04:14:46.810Z,92.00
2018-09-05T04:17:15.258Z,92.20
2018-09-05T04:19:43.734Z,92.45
2018-09-05T04:22:12.228Z,91.83
2018-09-05T04:24:40.759Z,91.19
2018-09-05T04:27:09.257Z,91.56
2018-09-05T04:29:37.792Z,91.00
2018-09-05T04:32:06.265Z,91.26
2018-09-05T04:34:34.809Z,90.63
2018-09-05T04:37:03.272Z,90.75
2018-09-05T04:39:31.764Z,90.70
2018-09-05T04:42:00.249Z,90.54
2018-09-05T04:44:28.750Z,91.52
2018-09-05T04:46:57.252Z,91.26
2018-09-05T04:49:25.785Z,91.11
2018-09-05T04:51:54.238Z,90.79
2018-09-05T04:54:22.720Z,90.94
2018-09-05T04:56:51.173Z,91.51
2018-09-05T04:59:19.726Z,91.37
2018-09-05T05:01:48.185Z,90.72
2018-09-05T05:04:16.677Z,90.76
2018-09-05T05:06:45.163Z,91.44
2018-09-05T05:09:13.669Z,90.84
2018-09-05T05:11:42.309Z,91.60
2018-09-05T05:14:11.217Z,91.67
2018-09-05T05:16:39.709Z,91.55
2018-09-05T05:19:08.209Z,91.54
2018-09-05T05:21:36.673Z,91.29
2018-09-05T05:24:05.214Z,91.18
2018-09-05T05:26:33.665Z,91.06
2018-09-05T05:29:02.152Z,91.20
2018-09-05T05:31:30.670Z,91.44
2018-09-05T05:33:59.148Z,90.84
2018-09-05T05:36:27.645Z,90.86
2018-09-05T05:38:56.096Z,89.95
2018-09-05T05:41:24.578Z,90.10
2018-09-05T05:43:53.098Z,89.37
2018-09-05T05:46:21.662Z,88.60
2018-09-05T05:48:50.160Z,88.89
2018-09-05T05:51:18.658Z,89.25
2018-09-05T05:53:47.133Z,89.45
2018-09-05T05:56:15.641Z,88.57
2018-09-05T05:58:44.128Z,88.44
2018-09-05T06:01:12.673Z,87.43
2018-09-05T06:03:41.185Z,86.79
2018-09-05T06:06:09.846Z,86.28
2018-09-05T06:08:38.172Z,86.63
2018-09-05T06:11:06.873Z,87.25
2018-09-05T06:13:35.464Z,86.75
2018-09-05T06:16:04.017Z,86.52
2018-09-05T06:18:32.489Z,85.73
2018-09-05T06:21:01.827Z,86.26
2018-09-05T06:23:30.258Z,86.93
2018-09-05T06:25:58.741Z,87.08
2018-09-05T06:28:27.242Z,86.55
2018-09-05T06:30:55.820Z,87.26
2018-09-05T06:33:24.236Z,86.98
2018-09-05T06:35:52.941Z,86.86
2018-09-05T06:38:21.453Z,86.99
2018-09-05T06:40:50.018Z,87.52
2018-09-05T06:43:18.492Z,87.44
2018-09-05T06:45:46.979Z,88.44
2018-09-05T06:48:15.430Z,87.94
2018-09-05T06:50:43.921Z,88.35
2018-09-05T06:53:12.396Z,88.57
2018-09-05T06:55:40.889Z,88.87
2018-09-05T06:58:09.441Z,88.19
2018-09-05T07:00:37.962Z,87.69
2018-09-05T07:03:06.730Z,88.17
2018-09-05T07:05:35.268Z,88.17
2018-09-05T07:08:03.746Z,88.31
2018-09-05T07:10:32.225Z,89.88
2018-09-05T07:13:00.709Z,89.65
2018-09-05T07:15:29.180Z,88.73
2018-09-05T07:17:57.677Z,88.51
2018-09-05T07:20:26.138Z,88.13
2018-09-05T07:23:00.197Z,87.72
2018-09-05T07:25:28.844Z,87.55
2018-09-05T07:27:57.357Z,86.24
2018-09-05T07:30:25.922Z,86.53
2018-09-05T07:32:54.357Z,85.36
2018-09-05T07:35:22.819Z,84.32
2018-09-05T07:37:51.297Z,83.09
2018-09-05T07:40:19.821Z,83.38
2018-09-05T07:42:48.298Z,82.11
2018-09-05T07:45:16.831Z,81.10
2018-09-05T07:47:45.335Z,80.76
2018-09-05T07:50:13.781Z,79.94
2018-09-05T07:52:42.281Z,79.27
2018-09-05T07:55:10.772Z,78.50
2018-09-05T07:57:39.270Z,77.61
2018-09-05T08:00:07.781Z,78.87
2018-09-05T08:02:36.305Z,77.46
2018-09-05T08:05:04.881Z,77.36
2018-09-05T08:07:33.378Z,78.49
2018-09-05T08:10:02.090Z,78.34
2018-09-05T08:12:30.599Z,79.14
2018-09-05T08:14:59.092Z,79.29
2018-09-05T08:17:27.603Z,80.94
2018-09-05T08:19:56.270Z,80.89
2018-09-05T08:22:24.778Z,81.41
2018-09-05T08:24:53.275Z,81.81
2018-09-05T08:27:22.762Z,82.90
2018-09-05T08:29:51.991Z,82.67
2018-09-05T08:32:20.698Z,81.64
2018-09-05T08:34:49.196Z,80.96
2018-09-05T08:37:18.439Z,80.34
2018-09-05T08:39:46.937Z,80.48
2018-09-05T08:42:15.547Z,78.95
2018-09-05T08:44:44.114Z,78.81
2018-09-05T08:47:12.534Z,80.02
2018-09-05T08:49:40.981Z,79.88
2018-09-05T08:52:18.856Z,80.55
2018-09-05T08:54:47.357Z,80.64
2018-09-05T08:57:15.869Z,80.81
2018-09-05T08:59:45.521Z,80.93
2018-09-05T09:02:14.018Z,80.17
2018-09-05T09:04:42.662Z,79.23
2018-09-05T09:07:11.265Z,78.89
2018-09-05T09:11:04.182Z,78.75
2018-09-05T09:13:32.691Z,76.84
2018-09-05T09:16:01.168Z,75.61
2018-09-05T09:18:29.677Z,74.36
2018-09-05T09:20:58.229Z,73.63
2018-09-05T09:23:27.206Z,74.19
2018-09-05T09:25:56.021Z,73.16
2018-09-05T09:28:37.512Z,72.74
2018-09-05T09:31:06.651Z,73.32
2018-09-05T09:33:35.197Z,72.93
2018-09-05T09:36:09.840Z,73.60
2018-09-05T09:38:38.510Z,72.38
2018-09-05T09:41:06.997Z,73.00
2018-09-05T09:43:35.528Z,71.09
2018-09-05T09:46:03.991Z,70.79
2018-09-05T09:50:01.593Z,69.22
2018-09-05T09:52:30.090Z,67.35
2018-09-05T09:54:58.637Z,63.20
2018-09-05T09:57:27.107Z,62.39
2018-09-05T09:59:55.619Z,61.60
2018-09-05T10:02:29.310Z,59.09
2018-09-05T10:05:02.946Z,53.95
2018-09-05T10:07:36.785Z,53.52
2018-09-05T10:10:10.677Z,53.01
2018-09-05T10:12:44.465Z,52.24
2018-09-05T10:15:13.717Z,50.47
2018-09-05T10:17:42.166Z,52.22
2018-09-05T10:20:10.689Z,52.86
2018-09-05T10:22:39.197Z,54.55
2018-09-05T10:25:07.737Z,55.94
2018-09-05T10:27:36.201Z,57.88
2018-09-05T10:30:04.736Z,58.02
2018-09-05T10:32:33.193Z,56.67
2018-09-05T10:35:01.686Z,56.49
2018-09-05T10:37:30.207Z,54.11
2018-09-05T10:39:58.712Z,53.75
2018-09-05T10:42:27.169Z,54.09
2018-09-05T10:44:55.629Z,53.19
2018-09-05T10:47:24.061Z,53.58
2018-09-05T10:49:52.557Z,51.88
2018-09-05T10:52:21.005Z,52.91
2018-09-05T10:54:49.497Z,48.51
2018-09-05T10:57:17.961Z,44.49
2018-09-05T10:59:46.465Z,43.19
2018-09-05T11:02:14.941Z,41.42
2018-09-05T11:04:43.435Z,41.61
2018-09-05T11:07:11.917Z,39.41
2018-09-05T11:09:40.423Z,38.50
2018-09-05T11:12:08.888Z,33.65
2018-09-05T11:14:37.390Z,32.52
2018-09-05T11:17:05.854Z,31.02
2018-09-05T11:19:34.339Z,30.89
2018-09-05T11:22:03.344Z,30.56
2018-09-05T11:24:33.367Z,29.42
2018-09-05T11:27:01.910Z,29.59
2018-09-05T11:29:30.409Z,31.33
2018-09-05T11:31:58.909Z,33.23
2018-09-05T11:34:27.397Z,33.08
2018-09-05T11:36:55.888Z,32.19
2018-09-05T11:39:24.374Z,33.55
2018-09-05T11:41:52.820Z,34.73
2018-09-05T11:44:21.316Z,35.10
2018-09-05T11:46:49.778Z,33.67
2018-09-05T11:49:18.264Z,33.05
2018-09-05T11:51:46.705Z,34.05
2018-09-05T11:54:15.165Z,34.78
2018-09-05T11:56:43.657Z,35.12
2018-09-05T11:59:12.105Z,35.49
2018-09-05T12:01:40.598Z,34.79
2018-09-05T12:04:09.108Z,34.53
2018-09-05T12:06:37.626Z,32.07
2018-09-05T12:09:09.029Z,32.52
2018-09-05T12:11:37.565Z,31.25
2018-09-05T12:14:06.109Z,32.58
2018-09-05T12:16:36.277Z,31.24
2018-09-05T12:19:05.281Z,30.43
2018-09-05T12:21:33.789Z,31.68
2018-09-05T12:24:02.277Z,31.56
2018-09-05T12:26:30.773Z,30.73
2018-09-05T12:28:59.290Z,33.81
2018-09-05T12:31:27.821Z,34.48
2018-09-05T12:33:56.288Z,34.51
2018-09-05T12:36:24.838Z,32.68
2018-09-05T12:38:53.321Z,32.68
2018-09-05T12:41:21.801Z,31.72
2018-09-05T12:43:50.266Z,34.47
2018-09-05T12:46:18.785Z,33.43
2018-09-05T12:48:47.261Z,32.12
2018-09-05T12:51:15.832Z,32.87
2018-09-05T12:53:44.277Z,34.25
2018-09-05T12:56:12.796Z,31.72
2018-09-05T12:58:41.251Z,30.94
2018-09-05T13:01:09.973Z,32.38
2018-09-05T13:03:38.558Z,32.95
2018-09-05T13:06:07.158Z,32.54
2018-09-05T13:08:35.638Z,33.69
2018-09-05T13:11:04.137Z,35.01
2018-09-05T13:13:32.713Z,35.53
2018-09-05T13:16:01.210Z,35.29
2018-09-05T13:18:29.736Z,33.40
2018-09-05T13:20:58.239Z,33.65
2018-09-05T13:23:26.753Z,32.78
2018-09-05T13:25:55.290Z,34.35
2018-09-05T13:28:24.030Z,34.43
2018-09-05T13:30:52.520Z,34.03
2018-09-05T13:33:21.025Z,32.51
2018-09-05T13:35:49.598Z,33.35
2018-09-05T13:38:18.181Z,34.61
2018-09-05T13:40:46.633Z,33.88
2018-09-05T13:43:15.174Z,33.37
2018-09-05T13:45:43.654Z,31.72
2018-09-05T13:48:12.165Z,31.39
2018-09-05T13:50:40.681Z,33.49
2018-09-05T13:53:09.177Z,32.54
2018-09-05T13:55:37.677Z,32.24
2018-09-05T13:58:06.667Z,30.23
2018-09-05T14:00:35.209Z,31.01
2018-09-05T14:03:03.713Z,32.26
2018-09-05T14:05:32.192Z,31.50
2018-09-05T14:08:00.702Z,30.17
2018-09-05T14:10:29.185Z,30.90
2018-09-05T14:12:57.682Z,32.71
2018-09-05T14:15:26.167Z,31.97
2018-09-05T14:17:54.664Z,32.23
2018-09-05T14:20:23.228Z,31.46
2018-09-05T14:22:51.747Z,29.78
2018-09-05T14:25:20.211Z,30.37
2018-09-05T14:27:48.733Z,31.69
2018-09-05T14:30:17.249Z,31.09
2018-09-05T14:32:45.774Z,31.33
2018-09-05T14:35:14.349Z,30.24
2018-09-05T14:37:42.852Z,30.79
2018-09-05T14:40:11.431Z,31.49
2018-09-05T14:42:39.880Z,31.83
2018-09-05T14:45:08.409Z,30.49
2018-09-05T14:47:36.910Z,30.73
2018-09-05T14:50:05.605Z,31.66
2018-09-05T14:52:34.137Z,30.17
2018-09-05T14:55:02.623Z,30.30
2018-09-05T14:57:31.141Z,28.71
2018-09-05T14:59:59.653Z,28.79
2018-09-05T15:02:28.182Z,29.28
2018-09-05T15:04:56.686Z,29.12
2018-09-05T15:07:28.237Z,29.84
2018-09-05T15:09:56.783Z,29.72
2018-09-05T15:12:25.263Z,29.01
2018-09-05T15:14:53.785Z,30.33
2018-09-05T15:17:22.263Z,30.32
2018-09-05T15:19:50.759Z,31.45
2018-09-05T15:22:19.265Z,31.74
2018-09-05T15:24:47.761Z,30.71
2018-09-05T15:27:16.289Z,31.03
2018-09-05T15:29:44.886Z,32.01
2018-09-05T15:32:13.438Z,32.24
2018-09-05T15:34:41.997Z,31.44
2018-09-05T15:37:10.600Z,32.15
2018-09-05T15:39:39.158Z,32.67
2018-09-05T15:42:07.762Z,31.29
2018-09-05T15:44:36.342Z,33.26
2018-09-05T15:47:04.935Z,33.41
2018-09-05T15:49:33.545Z,33.10
2018-09-05T15:52:02.083Z,33.75
2018-09-05T15:54:30.693Z,33.38
2018-09-05T15:56:59.258Z,32.90
2018-09-05T15:59:27.751Z,32.90
2018-09-05T16:01:56.294Z,33.15
2018-09-05T16:04:24.916Z,32.96
2018-09-05T16:06:53.422Z,34.67
2018-09-05T16:09:21.984Z,34.53
2018-09-05T16:11:50.491Z,34.48
2018-09-05T16:14:19.026Z,34.78
2018-09-05T16:16:47.537Z,34.07
2018-09-05T16:19:16.078Z,33.94
2018-09-05T16:21:44.584Z,33.21
2018-09-05T16:24:13.118Z,35.24
2018-09-05T16:28:06.114Z,36.25
2018-09-05T16:30:34.620Z,35.96
2018-09-05T16:33:03.137Z,36.40
2018-09-05T16:35:31.741Z,37.39
2018-09-05T16:38:00.177Z,37.04
2018-09-05T16:40:28.860Z,38.78
2018-09-05T16:42:57.333Z,38.13
2018-09-05T16:45:25.885Z,36.66
2018-09-05T16:47:54.427Z,37.91
2018-09-05T16:50:23.267Z,38.48
2018-09-05T16:52:51.836Z,38.44
2018-09-05T16:55:20.377Z,39.01
2018-09-05T16:57:48.895Z,40.11
2018-09-05T17:00:17.415Z,42.76
2018-09-05T17:02:46.020Z,42.15
2018-09-05T17:05:14.725Z,42.40
2018-09-05T17:07:43.242Z,42.67
2018-09-05T17:10:11.791Z,43.39
2018-09-05T17:12:40.344Z,44.03
2018-09-05T17:15:09.298Z,45.04
2018-09-05T17:17:37.766Z,47.08
2018-09-05T17:20:06.547Z,46.58
2018-09-05T17:22:35.254Z,50.10
2018-09-05T17:25:04.378Z,49.94
2018-09-05T17:27:33.662Z,48.49
2018-09-05T17:30:02.178Z,51.90
2018-09-05T17:32:30.671Z,51.29
2018-09-05T17:34:59.181Z,52.70
2018-09-05T17:37:27.631Z,53.85
2018-09-05T17:39:56.125Z,55.06
2018-09-05T17:42:24.632Z,56.82
2018-09-05T17:44:53.145Z,58.32
2018-09-05T17:47:21.609Z,59.84
2018-09-05T17:49:50.086Z,61.32
2018-09-05T17:52:18.543Z,61.29
2018-09-05T17:54:47.037Z,62.47
2018-09-05T17:57:15.507Z,62.52
2018-09-05T17:59:44.026Z,63.15
2018-09-05T18:02:12.488Z,62.84
2018-09-05T18:04:40.985Z,63.02
2018-09-05T18:07:09.475Z,64.40
2018-09-05T18:09:37.981Z,65.30
2018-09-05T18:12:06.661Z,66.19
2018-09-05T18:14:35.272Z,66.11
2018-09-05T18:17:03.743Z,66.81
2018-09-05T18:19:32.265Z,66.99
2018-09-05T18:22:00.749Z,67.21
2018-09-05T18:24:29.291Z,68.69
2018-09-05T18:26:57.768Z,68.87
2018-09-05T18:29:26.237Z,69.88
2018-09-05T18:31:55.618Z,70.10
2018-09-05T18:34:24.095Z,70.27
2018-09-05T18:36:52.631Z,71.49
2018-09-05T18:39:21.104Z,71.78
2018-09-05T18:41:49.625Z,72.43
2018-09-05T18:44:18.108Z,72.75
2018-09-05T18:46:46.639Z,73.26
2018-09-05T18:49:15.166Z,73.77
2018-09-05T18:51:43.666Z,74.49
2018-09-05T18:54:12.142Z,74.88
2018-09-05T18:56:40.642Z,75.37
2018-09-05T18:59:09.162Z,75.33
2018-09-05T19:01:37.693Z,75.69
2018-09-05T19:04:06.334Z,76.49
2018-09-05T19:06:34.861Z,77.02
2018-09-05T19:09:03.442Z,76.82
2018-09-05T19:11:31.991Z,77.30
2018-09-05T19:14:00.527Z,77.82
2018-09-05T19:16:28.980Z,77.46
2018-09-05T19:18:57.429Z,77.90
2018-09-05T19:21:25.929Z,77.87
2018-09-05T19:23:54.373Z,78.25
2018-09-05T19:26:22.852Z,78.07
2018-09-05T19:28:51.301Z,78.16
2018-09-05T19:31:19.840Z,78.66
2018-09-05T19:33:48.314Z,78.14
2018-09-05T19:36:16.828Z,78.95
2018-09-05T19:38:45.382Z,79.21
2018-09-05T19:41:13.894Z,79.40
2018-09-05T19:43:42.409Z,79.40
2018-09-05T19:46:10.937Z,80.00
2018-09-05T19:48:39.454Z,79.73
2018-09-05T19:51:07.977Z,79.91
2018-09-05T19:53:36.474Z,79.60
2018-09-05T19:56:04.976Z,79.75
2018-09-05T19:58:33.458Z,79.26
2018-09-05T20:01:01.982Z,79.52
2018-09-05T20:03:30.485Z,79.44
2018-09-05T20:05:59.023Z,79.56
2018-09-05T20:08:27.557Z,80.14
2018-09-05T20:10:56.104Z,79.87
2018-09-05T20:13:24.602Z,79.90
2018-09-05T20:15:53.171Z,80.55
2018-09-05T20:19:46.028Z,80.42
2018-09-05T20:22:14.527Z,80.68
2018-09-05T20:24:43.046Z,81.06
2018-09-05T20:27:11.621Z,80.50
2018-09-05T20:29:40.161Z,80.52
2018-09-05T20:32:08.682Z,81.01
2018-09-05T20:34:37.178Z,80.53
2018-09-05T20:37:05.756Z,81.88
2018-09-05T20:39:34.234Z,82.07
2018-09-05T20:42:02.755Z,81.65
2018-09-05T20:44:31.238Z,81.24
2018-09-05T20:46:59.866Z,81.04
2018-09-05T20:49:28.363Z,80.89
2018-09-05T20:51:56.860Z,80.58
2018-09-05T20:54:25.345Z,81.13
2018-09-05T20:56:53.861Z,81.49
2018-09-05T20:59:22.339Z,82.28
2018-09-05T21:01:50.862Z,82.27
2018-09-05T21:04:19.361Z,82.08
2018-09-05T21:06:47.877Z,81.59
2018-09-05T21:09:16.356Z,82.11
2018-09-05T21:11:44.865Z,82.48
2018-09-05T21:14:13.357Z,82.62
2018-09-05T21:16:41.866Z,81.93
2018-09-05T21:19:10.320Z,82.11
2018-09-05T21:21:38.843Z,82.14
2018-09-05T21:24:07.289Z,82.62
2018-09-05T21:26:36.287Z,81.91
2018-09-05T21:29:04.862Z,82.39
2018-09-05T21:31:33.364Z,82.13
2018-09-05T21:34:01.887Z,81.89
2018-09-05T21:36:30.366Z,82.29
2018-09-05T21:38:58.936Z,81.87
2018-09-05T21:41:27.414Z,82.37
2018-09-05T21:43:56.295Z,82.63
2018-09-05T21:46:24.769Z,83.09
2018-09-05T21:48:53.285Z,83.22
2018-09-05T21:51:21.751Z,82.74
2018-09-05T21:53:50.250Z,82.99
2018-09-05T21:56:18.701Z,82.85
2018-09-05T21:58:47.207Z,82.84
2018-09-05T22:01:18.781Z,83.04
2018-09-05T22:03:48.613Z,83.12
2018-09-05T22:06:17.081Z,83.53
2018-09-05T22:08:45.586Z,83.27
2018-09-05T22:11:19.470Z,83.27
2018-09-05T22:13:48.427Z,83.75
2018-09-05T22:16:16.901Z,83.25
2018-09-05T22:18:45.410Z,83.62
2018-09-05T22:21:13.858Z,83.35
2018-09-05T22:23:42.341Z,83.40
2018-09-05T22:26:10.959Z,82.89
2018-09-05T22:28:40.622Z,83.01
2018-09-05T22:31:09.194Z,82.46
2018-09-05T22:33:37.723Z,83.20
2018-09-05T22:36:06.214Z,82.75
2018-09-05T22:38:35.258Z,82.37
2018-09-05T22:41:04.471Z,82.88
2018-09-05T22:43:44.095Z,83.02
2018-09-05T22:46:24.009Z,83.19
2018-09-05T22:49:03.829Z,82.99
2018-09-05T22:53:22.799Z,83.06
2018-09-05T23:00:17.188Z,83.65
2018-09-05T23:02:57.790Z,84.17
2018-09-05T23:07:40.756Z,83.81
2018-09-05T23:10:20.466Z,84.26
2018-09-05T23:13:00.194Z,84.03
2018-09-05T23:15:39.918Z,83.29
2018-09-05T23:18:26.414Z,83.58
2018-09-05T23:21:21.358Z,83.33
2018-09-05T23:23:59.209Z,82.98
2018-09-05T23:26:28.014Z,82.70
2018-09-05T23:28:56.531Z,82.90
2018-09-05T23:31:25.164Z,82.93
2018-09-05T23:33:53.720Z,82.89
2018-09-05T23:36:22.590Z,82.61
2018-09-05T23:38:51.058Z,82.77
2018-09-05T23:41:19.572Z,82.19
2018-09-05T23:43:48.115Z,82.30
2018-09-05T23:46:17.398Z,82.29
2018-09-05T23:48:45.918Z,83.01
2018-09-05T23:51:14.423Z,82.87
2018-09-05T23:53:42.902Z,82.59
2018-09-05T23:56:11.436Z,82.89
2018-09-05T23:58:39.911Z,82.79
